sensor_id;sensor_type;location;lat;lon;timestamp;temperature;humidity
24224;DHT22;12359;49.716;9.212;2023-02-01T00:00:24;5.90;52.40
24224;DHT22;12359;49.716;9.212;2023-02-01T00:02:50;5.90;53.80
24224;DHT22;12359;49.716;9.212;2023-02-01T00:05:15;5.90;53.70
24224;DHT22;12359;49.716;9.212;2023-02-01T00:07:41;6.00;53.40
24224;DHT22;12359;49.716;9.212;2023-02-01T00:10:08;6.00;53.70
24224;DHT22;12359;49.716;9.212;2023-02-01T00:12:33;6.00;55.70
24224;DHT22;12359;49.716;9.212;2023-02-01T00:14:59;6.00;54.70
24224;DHT22;12359;49.716;9.212;2023-02-01T00:17:25;6.10;53.60
24224;DHT22;12359;49.716;9.212;2023-02-01T00:19:51;6.00;50.70
24224;DHT22;12359;49.716;9.212;2023-02-01T00:22:17;6.10;51.30
24224;DHT22;12359;49.716;9.212;2023-02-01T00:24:42;6.10;48.90
24224;DHT22;12359;49.716;9.212;2023-02-01T00:27:08;6.10;48.90
24224;DHT22;12359;49.716;9.212;2023-02-01T00:29:34;6.10;47.00
24224;DHT22;12359;49.716;9.212;2023-02-01T00:31:59;6.10;49.80
24224;DHT22;12359;49.716;9.212;2023-02-01T00:34:26;6.10;49.60
24224;DHT22;12359;49.716;9.212;2023-02-01T00:36:51;6.10;50.20
24224;DHT22;12359;49.716;9.212;2023-02-01T00:39:17;6.20;49.50
24224;DHT22;12359;49.716;9.212;2023-02-01T00:41:43;6.20;45.80
24224;DHT22;12359;49.716;9.212;2023-02-01T00:44:08;6.10;47.20
24224;DHT22;12359;49.716;9.212;2023-02-01T00:46:34;6.20;47.70
24224;DHT22;12359;49.716;9.212;2023-02-01T00:49:00;6.20;46.10
24224;DHT22;12359;49.716;9.212;2023-02-01T00:51:28;6.20;47.40
24224;DHT22;12359;49.716;9.212;2023-02-01T00:53:55;6.20;46.80
24224;DHT22;12359;49.716;9.212;2023-02-01T00:56:21;6.10;47.70
24224;DHT22;12359;49.716;9.212;2023-02-01T00:58:47;6.10;48.90
24224;DHT22;12359;49.716;9.212;2023-02-01T01:01:14;6.10;48.60
24224;DHT22;12359;49.716;9.212;2023-02-01T01:03:45;6.10;46.40
24224;DHT22;12359;49.716;9.212;2023-02-01T01:06:17;6.10;46.60
24224;DHT22;12359;49.716;9.212;2023-02-01T01:08:43;6.10;48.60
24224;DHT22;12359;49.716;9.212;2023-02-01T01:11:17;6.10;48.80
24224;DHT22;12359;49.716;9.212;2023-02-01T01:13:45;6.00;48.80
24224;DHT22;12359;49.716;9.212;2023-02-01T01:16:11;6.10;48.10
24224;DHT22;12359;49.716;9.212;2023-02-01T01:18:38;6.10;49.10
24224;DHT22;12359;49.716;9.212;2023-02-01T01:21:07;6.10;51.00
24224;DHT22;12359;49.716;9.212;2023-02-01T01:23:34;6.10;51.00
24224;DHT22;12359;49.716;9.212;2023-02-01T01:26:04;6.10;50.10
24224;DHT22;12359;49.716;9.212;2023-02-01T01:28:29;6.10;51.90
24224;DHT22;12359;49.716;9.212;2023-02-01T01:30:55;6.10;51.70
24224;DHT22;12359;49.716;9.212;2023-02-01T01:33:21;6.10;52.40
24224;DHT22;12359;49.716;9.212;2023-02-01T01:45:53;5.90;54.70
24224;DHT22;12359;49.716;9.212;2023-02-01T01:48:28;5.90;55.90
24224;DHT22;12359;49.716;9.212;2023-02-01T01:51:04;5.90;53.30
24224;DHT22;12359;49.716;9.212;2023-02-01T01:53:38;5.80;53.30
24224;DHT22;12359;49.716;9.212;2023-02-01T01:56:06;5.80;56.80
24224;DHT22;12359;49.716;9.212;2023-02-01T01:58:33;5.80;57.00
24224;DHT22;12359;49.716;9.212;2023-02-01T02:00:59;5.80;58.10
24224;DHT22;12359;49.716;9.212;2023-02-01T02:03:35;5.80;56.80
24224;DHT22;12359;49.716;9.212;2023-02-01T02:06:04;5.80;56.30
24224;DHT22;12359;49.716;9.212;2023-02-01T02:08:31;5.90;57.80
24224;DHT22;12359;49.716;9.212;2023-02-01T02:10:56;5.90;57.10
24224;DHT22;12359;49.716;9.212;2023-02-01T02:13:33;5.90;55.50
24224;DHT22;12359;49.716;9.212;2023-02-01T02:16:06;5.90;58.00
24224;DHT22;12359;49.716;9.212;2023-02-01T02:18:44;5.90;57.40
24224;DHT22;12359;49.716;9.212;2023-02-01T02:26:46;6.00;56.90
24224;DHT22;12359;49.716;9.212;2023-02-01T02:29:38;6.00;56.40
24224;DHT22;12359;49.716;9.212;2023-02-01T02:35:21;6.20;55.00
24224;DHT22;12359;49.716;9.212;2023-02-01T02:38:13;6.20;53.40
24224;DHT22;12359;49.716;9.212;2023-02-01T02:40:51;6.20;53.80
24224;DHT22;12359;49.716;9.212;2023-02-01T02:46:24;6.20;53.60
24224;DHT22;12359;49.716;9.212;2023-02-01T02:49:17;6.20;51.00
24224;DHT22;12359;49.716;9.212;2023-02-01T02:52:06;6.20;51.70
24224;DHT22;12359;49.716;9.212;2023-02-01T02:54:54;6.20;51.40
24224;DHT22;12359;49.716;9.212;2023-02-01T02:57:34;6.20;52.20
24224;DHT22;12359;49.716;9.212;2023-02-01T03:00:22;6.10;52.20
24224;DHT22;12359;49.716;9.212;2023-02-01T03:03:07;6.20;56.00
24224;DHT22;12359;49.716;9.212;2023-02-01T03:05:51;6.20;56.20
24224;DHT22;12359;49.716;9.212;2023-02-01T03:08:28;6.20;55.80
24224;DHT22;12359;49.716;9.212;2023-02-01T03:11:04;6.20;56.60
24224;DHT22;12359;49.716;9.212;2023-02-01T03:13:56;6.20;57.30
24224;DHT22;12359;49.716;9.212;2023-02-01T03:16:36;6.20;56.60
24224;DHT22;12359;49.716;9.212;2023-02-01T03:19:22;6.20;56.00
24224;DHT22;12359;49.716;9.212;2023-02-01T03:21:57;6.10;55.00
24224;DHT22;12359;49.716;9.212;2023-02-01T03:24:29;6.20;56.50
24224;DHT22;12359;49.716;9.212;2023-02-01T03:30:28;6.20;54.30
24224;DHT22;12359;49.716;9.212;2023-02-01T03:32:57;6.20;53.60
24224;DHT22;12359;49.716;9.212;2023-02-01T03:35:46;6.20;55.60
24224;DHT22;12359;49.716;9.212;2023-02-01T03:40:49;6.10;60.60
24224;DHT22;12359;49.716;9.212;2023-02-01T03:43:17;6.10;59.70
24224;DHT22;12359;49.716;9.212;2023-02-01T03:45:48;6.10;61.90
24224;DHT22;12359;49.716;9.212;2023-02-01T03:48:16;6.10;63.90
24224;DHT22;12359;49.716;9.212;2023-02-01T03:50:49;6.00;67.30
24224;DHT22;12359;49.716;9.212;2023-02-01T03:53:19;6.00;66.70
24224;DHT22;12359;49.716;9.212;2023-02-01T03:55:46;6.00;70.40
24224;DHT22;12359;49.716;9.212;2023-02-01T03:58:18;6.00;74.60
24224;DHT22;12359;49.716;9.212;2023-02-01T04:00:55;5.90;75.50
24224;DHT22;12359;49.716;9.212;2023-02-01T04:03:22;5.90;81.00
24224;DHT22;12359;49.716;9.212;2023-02-01T04:05:49;5.80;79.90
24224;DHT22;12359;49.716;9.212;2023-02-01T04:08:15;5.80;82.80
24224;DHT22;12359;49.716;9.212;2023-02-01T04:10:41;5.70;75.00
24224;DHT22;12359;49.716;9.212;2023-02-01T04:13:07;5.60;70.10
24224;DHT22;12359;49.716;9.212;2023-02-01T04:15:33;5.50;77.20
24224;DHT22;12359;49.716;9.212;2023-02-01T04:18:00;5.50;77.80
24224;DHT22;12359;49.716;9.212;2023-02-01T04:20:25;5.40;75.80
24224;DHT22;12359;49.716;9.212;2023-02-01T04:22:51;5.40;76.60
24224;DHT22;12359;49.716;9.212;2023-02-01T04:25:17;5.40;79.90
24224;DHT22;12359;49.716;9.212;2023-02-01T04:27:43;5.40;80.60
24224;DHT22;12359;49.716;9.212;2023-02-01T04:30:09;5.40;76.50
24224;DHT22;12359;49.716;9.212;2023-02-01T04:32:36;5.50;77.00
24224;DHT22;12359;49.716;9.212;2023-02-01T04:35:02;5.50;75.20
24224;DHT22;12359;49.716;9.212;2023-02-01T04:37:28;5.50;71.60
24224;DHT22;12359;49.716;9.212;2023-02-01T04:39:54;5.50;71.30
24224;DHT22;12359;49.716;9.212;2023-02-01T04:42:20;5.50;66.30
24224;DHT22;12359;49.716;9.212;2023-02-01T04:44:46;5.50;67.30
24224;DHT22;12359;49.716;9.212;2023-02-01T04:47:11;5.50;66.80
24224;DHT22;12359;49.716;9.212;2023-02-01T04:49:37;5.60;66.00
24224;DHT22;12359;49.716;9.212;2023-02-01T04:52:03;5.60;63.60
24224;DHT22;12359;49.716;9.212;2023-02-01T04:54:29;5.60;66.00
24224;DHT22;12359;49.716;9.212;2023-02-01T04:56:54;5.60;67.50
24224;DHT22;12359;49.716;9.212;2023-02-01T04:59:20;5.60;65.50
24224;DHT22;12359;49.716;9.212;2023-02-01T05:01:45;5.60;63.00
24224;DHT22;12359;49.716;9.212;2023-02-01T05:04:11;5.70;65.90
24224;DHT22;12359;49.716;9.212;2023-02-01T05:06:37;5.70;64.00
24224;DHT22;12359;49.716;9.212;2023-02-01T05:09:03;5.70;64.40
24224;DHT22;12359;49.716;9.212;2023-02-01T05:11:28;5.70;64.30
24224;DHT22;12359;49.716;9.212;2023-02-01T05:14:12;5.70;60.40
24224;DHT22;12359;49.716;9.212;2023-02-01T05:16:38;5.70;60.40
24224;DHT22;12359;49.716;9.212;2023-02-01T05:19:04;5.70;62.30
24224;DHT22;12359;49.716;9.212;2023-02-01T05:21:29;5.70;61.50
24224;DHT22;12359;49.716;9.212;2023-02-01T05:23:55;5.70;63.90
24224;DHT22;12359;49.716;9.212;2023-02-01T05:26:41;5.70;61.30
24224;DHT22;12359;49.716;9.212;2023-02-01T05:29:07;5.80;64.50
24224;DHT22;12359;49.716;9.212;2023-02-01T05:31:34;5.80;62.20
24224;DHT22;12359;49.716;9.212;2023-02-01T05:33:59;5.80;62.90
24224;DHT22;12359;49.716;9.212;2023-02-01T05:36:25;5.80;61.40
24224;DHT22;12359;49.716;9.212;2023-02-01T05:38:51;5.80;60.00
24224;DHT22;12359;49.716;9.212;2023-02-01T05:41:17;5.80;61.10
24224;DHT22;12359;49.716;9.212;2023-02-01T05:43:42;5.80;60.70
24224;DHT22;12359;49.716;9.212;2023-02-01T05:46:08;5.80;58.90
24224;DHT22;12359;49.716;9.212;2023-02-01T05:48:38;5.90;61.00
24224;DHT22;12359;49.716;9.212;2023-02-01T05:51:04;5.80;59.20
24224;DHT22;12359;49.716;9.212;2023-02-01T05:53:29;5.80;59.00
24224;DHT22;12359;49.716;9.212;2023-02-01T05:55:55;5.90;59.90
24224;DHT22;12359;49.716;9.212;2023-02-01T05:58:21;5.90;60.00
24224;DHT22;12359;49.716;9.212;2023-02-01T06:00:46;5.90;60.20
24224;DHT22;12359;49.716;9.212;2023-02-01T06:03:12;5.90;60.40
24224;DHT22;12359;49.716;9.212;2023-02-01T06:05:38;5.90;60.90
24224;DHT22;12359;49.716;9.212;2023-02-01T06:08:04;5.90;58.40
24224;DHT22;12359;49.716;9.212;2023-02-01T06:10:29;5.90;60.30
24224;DHT22;12359;49.716;9.212;2023-02-01T06:12:55;5.90;60.80
24224;DHT22;12359;49.716;9.212;2023-02-01T06:15:21;5.90;59.50
24224;DHT22;12359;49.716;9.212;2023-02-01T06:17:47;5.90;61.60
24224;DHT22;12359;49.716;9.212;2023-02-01T06:20:14;5.90;61.00
24224;DHT22;12359;49.716;9.212;2023-02-01T06:22:40;5.90;60.50
24224;DHT22;12359;49.716;9.212;2023-02-01T06:25:07;5.90;61.50
24224;DHT22;12359;49.716;9.212;2023-02-01T06:27:34;5.90;59.00
24224;DHT22;12359;49.716;9.212;2023-02-01T06:29:59;5.90;60.60
24224;DHT22;12359;49.716;9.212;2023-02-01T06:32:25;6.00;60.80
24224;DHT22;12359;49.716;9.212;2023-02-01T06:34:51;6.00;58.00
24224;DHT22;12359;49.716;9.212;2023-02-01T06:37:21;5.90;58.20
24224;DHT22;12359;49.716;9.212;2023-02-01T06:39:48;6.00;59.50
24224;DHT22;12359;49.716;9.212;2023-02-01T06:42:14;6.00;59.70
24224;DHT22;12359;49.716;9.212;2023-02-01T06:44:40;6.00;60.30
24224;DHT22;12359;49.716;9.212;2023-02-01T06:47:05;6.00;60.00
24224;DHT22;12359;49.716;9.212;2023-02-01T06:49:31;6.00;59.10
24224;DHT22;12359;49.716;9.212;2023-02-01T06:51:57;6.10;58.80
24224;DHT22;12359;49.716;9.212;2023-02-01T06:54:25;6.10;58.10
24224;DHT22;12359;49.716;9.212;2023-02-01T06:56:51;6.00;56.90
24224;DHT22;12359;49.716;9.212;2023-02-01T06:59:17;6.10;55.10
24224;DHT22;12359;49.716;9.212;2023-02-01T07:01:43;6.10;56.50
24224;DHT22;12359;49.716;9.212;2023-02-01T07:04:13;6.10;54.40
24224;DHT22;12359;49.716;9.212;2023-02-01T07:06:39;6.00;54.40
24224;DHT22;12359;49.716;9.212;2023-02-01T07:09:05;6.00;56.80
24224;DHT22;12359;49.716;9.212;2023-02-01T07:11:31;6.10;56.00
24224;DHT22;12359;49.716;9.212;2023-02-01T07:13:58;6.10;55.00
24224;DHT22;12359;49.716;9.212;2023-02-01T07:16:24;6.10;52.70
24224;DHT22;12359;49.716;9.212;2023-02-01T07:18:51;6.20;54.00
24224;DHT22;12359;49.716;9.212;2023-02-01T07:21:17;6.20;54.60
24224;DHT22;12359;49.716;9.212;2023-02-01T07:23:43;6.20;55.60
24224;DHT22;12359;49.716;9.212;2023-02-01T07:26:11;6.10;57.80
24224;DHT22;12359;49.716;9.212;2023-02-01T07:28:41;6.10;54.50
24224;DHT22;12359;49.716;9.212;2023-02-01T07:31:10;6.00;44.20
24224;DHT22;12359;49.716;9.212;2023-02-01T07:33:36;5.90;32.70
24224;DHT22;12359;49.716;9.212;2023-02-01T07:36:04;5.70;38.20
24224;DHT22;12359;49.716;9.212;2023-02-01T07:38:30;5.60;24.00
24224;DHT22;12359;49.716;9.212;2023-02-01T07:41:05;5.50;38.40
24224;DHT22;12359;49.716;9.212;2023-02-01T07:43:31;5.40;49.20
24224;DHT22;12359;49.716;9.212;2023-02-01T07:45:58;5.40;50.40
24224;DHT22;12359;49.716;9.212;2023-02-01T07:48:25;5.40;50.30
24224;DHT22;12359;49.716;9.212;2023-02-01T07:51:09;5.40;52.70
24224;DHT22;12359;49.716;9.212;2023-02-01T07:53:36;5.40;51.70
24224;DHT22;12359;49.716;9.212;2023-02-01T07:56:03;5.50;53.60
24224;DHT22;12359;49.716;9.212;2023-02-01T07:58:29;5.50;51.50
24224;DHT22;12359;49.716;9.212;2023-02-01T08:00:55;5.60;53.60
24224;DHT22;12359;49.716;9.212;2023-02-01T08:03:39;5.60;51.70
24224;DHT22;12359;49.716;9.212;2023-02-01T08:06:05;5.70;49.60
24224;DHT22;12359;49.716;9.212;2023-02-01T08:08:31;5.70;49.30
24224;DHT22;12359;49.716;9.212;2023-02-01T08:11:02;5.80;51.10
24224;DHT22;12359;49.716;9.212;2023-02-01T08:13:28;5.90;53.00
24224;DHT22;12359;49.716;9.212;2023-02-01T08:16:05;6.10;54.80
24224;DHT22;12359;49.716;9.212;2023-02-01T08:18:31;6.30;51.10
24224;DHT22;12359;49.716;9.212;2023-02-01T08:21:02;6.50;48.80
24224;DHT22;12359;49.716;9.212;2023-02-01T08:23:27;6.60;39.40
24224;DHT22;12359;49.716;9.212;2023-02-01T08:25:53;6.80;39.70
24224;DHT22;12359;49.716;9.212;2023-02-01T08:28:18;7.10;36.30
24224;DHT22;12359;49.716;9.212;2023-02-01T08:30:44;7.30;24.60
24224;DHT22;12359;49.716;9.212;2023-02-01T08:33:10;7.70;28.00
24224;DHT22;12359;49.716;9.212;2023-02-01T08:38:03;9.40;1.00
24224;DHT22;12359;49.716;9.212;2023-02-01T08:40:30;10.50;1.00
24224;DHT22;12359;49.716;9.212;2023-02-01T08:42:56;11.50;12.50
24224;DHT22;12359;49.716;9.212;2023-02-01T08:45:24;12.10;99.90
24224;DHT22;12359;49.716;9.212;2023-02-01T08:47:54;12.40;99.90
24224;DHT22;12359;49.716;9.212;2023-02-01T08:50:21;12.40;99.90
24224;DHT22;12359;49.716;9.212;2023-02-01T08:52:47;12.50;1.00
24224;DHT22;12359;49.716;9.212;2023-02-01T09:00:10;14.20;99.90
24224;DHT22;12359;49.716;9.212;2023-02-01T09:02:37;14.10;99.90
24224;DHT22;12359;49.716;9.212;2023-02-01T09:05:03;13.80;99.90
24224;DHT22;12359;49.716;9.212;2023-02-01T09:07:30;13.20;99.90
24224;DHT22;12359;49.716;9.212;2023-02-01T09:09:55;12.40;72.60
24224;DHT22;12359;49.716;9.212;2023-02-01T09:12:22;12.10;5.70
24224;DHT22;12359;49.716;9.212;2023-02-01T09:14:48;11.50;99.90
24224;DHT22;12359;49.716;9.212;2023-02-01T09:17:14;11.00;99.90
24224;DHT22;12359;49.716;9.212;2023-02-01T09:19:39;10.80;1.00
24224;DHT22;12359;49.716;9.212;2023-02-01T09:22:05;10.50;99.90
24224;DHT22;12359;49.716;9.212;2023-02-01T09:24:31;10.50;99.90
24224;DHT22;12359;49.716;9.212;2023-02-01T09:26:56;10.40;13.00
24224;DHT22;12359;49.716;9.212;2023-02-01T09:29:22;10.80;99.90
24224;DHT22;12359;49.716;9.212;2023-02-01T09:31:48;11.40;1.00
24224;DHT22;12359;49.716;9.212;2023-02-01T09:34:14;11.60;99.90
24224;DHT22;12359;49.716;9.212;2023-02-01T09:36:39;11.50;99.90
24224;DHT22;12359;49.716;9.212;2023-02-01T09:39:05;11.10;99.90
24224;DHT22;12359;49.716;9.212;2023-02-01T09:42:05;10.70;99.90
24224;DHT22;12359;49.716;9.212;2023-02-01T09:47:29;10.30;1.00
24224;DHT22;12359;49.716;9.212;2023-02-01T09:50:28;10.10;99.90
24224;DHT22;12359;49.716;9.212;2023-02-01T09:53:04;10.00;96.30
24224;DHT22;12359;49.716;9.212;2023-02-01T09:55:41;9.70;1.00
24224;DHT22;12359;49.716;9.212;2023-02-01T10:00:40;9.40;99.90
24224;DHT22;12359;49.716;9.212;2023-02-01T10:03:11;9.10;99.90
24224;DHT22;12359;49.716;9.212;2023-02-01T10:14:08;8.50;99.90
24224;DHT22;12359;49.716;9.212;2023-02-01T10:17:08;8.30;99.90
24224;DHT22;12359;49.716;9.212;2023-02-01T10:22:15;8.00;99.90
24224;DHT22;12359;49.716;9.212;2023-02-01T10:27:36;8.10;1.00
24224;DHT22;12359;49.716;9.212;2023-02-01T10:30:21;8.10;1.00
24224;DHT22;12359;49.716;9.212;2023-02-01T10:32:55;8.10;99.90
24224;DHT22;12359;49.716;9.212;2023-02-01T10:35:26;8.00;99.90
24224;DHT22;12359;49.716;9.212;2023-02-01T10:45:22;7.70;1.00
24224;DHT22;12359;49.716;9.212;2023-02-01T10:47:50;7.60;1.00
24224;DHT22;12359;49.716;9.212;2023-02-01T10:56:25;7.70;99.90
24224;DHT22;12359;49.716;9.212;2023-02-01T12:45:40;8.60;99.90
24224;DHT22;12359;49.716;9.212;2023-02-01T12:48:26;8.90;8.20
24224;DHT22;12359;49.716;9.212;2023-02-01T12:50:56;8.90;99.90
24224;DHT22;12359;49.716;9.212;2023-02-01T12:55:58;8.80;99.90
24224;DHT22;12359;49.716;9.212;2023-02-01T12:58:29;8.90;99.90
24224;DHT22;12359;49.716;9.212;2023-02-01T13:01:01;8.80;99.90
24224;DHT22;12359;49.716;9.212;2023-02-01T13:03:35;8.70;99.90
24224;DHT22;12359;49.716;9.212;2023-02-01T13:06:26;8.60;1.00
24224;DHT22;12359;49.716;9.212;2023-02-01T13:08:57;8.60;99.90
24224;DHT22;12359;49.716;9.212;2023-02-01T13:11:38;8.50;99.90
24224;DHT22;12359;49.716;9.212;2023-02-01T13:15:11;8.50;1.00
24224;DHT22;12359;49.716;9.212;2023-02-01T13:17:31;8.50;99.90
24224;DHT22;12359;49.716;9.212;2023-02-01T13:20:54;8.50;99.90
24224;DHT22;12359;49.716;9.212;2023-02-01T13:25:54;8.70;1.00
24224;DHT22;12359;49.716;9.212;2023-02-01T13:37:04;8.80;99.90
24224;DHT22;12359;49.716;9.212;2023-02-01T13:44:56;8.60;92.20
24224;DHT22;12359;49.716;9.212;2023-02-01T13:47:31;8.50;99.90
24224;DHT22;12359;49.716;9.212;2023-02-01T13:50:12;8.40;99.90
24224;DHT22;12359;49.716;9.212;2023-02-01T13:52:42;8.40;1.00
24224;DHT22;12359;49.716;9.212;2023-02-01T13:57:48;8.40;58.20
24224;DHT22;12359;49.716;9.212;2023-02-01T14:00:38;8.20;99.90
24224;DHT22;12359;49.716;9.212;2023-02-01T14:03:22;8.10;99.90
24224;DHT22;12359;49.716;9.212;2023-02-01T14:09:15;8.00;99.90
24224;DHT22;12359;49.716;9.212;2023-02-01T14:11:51;8.00;99.90
24224;DHT22;12359;49.716;9.212;2023-02-01T14:19:30;7.90;99.90
24224;DHT22;12359;49.716;9.212;2023-02-01T14:24:34;7.90;99.90
24224;DHT22;12359;49.716;9.212;2023-02-01T14:29:38;7.90;1.00
24224;DHT22;12359;49.716;9.212;2023-02-01T14:32:17;7.90;55.80
24224;DHT22;12359;49.716;9.212;2023-02-01T14:42:23;8.00;1.00
24224;DHT22;12359;49.716;9.212;2023-02-01T14:44:50;7.90;87.90
24224;DHT22;12359;49.716;9.212;2023-02-01T14:47:28;8.00;99.90
24224;DHT22;12359;49.716;9.212;2023-02-01T14:50:07;8.00;63.00
24224;DHT22;12359;49.716;9.212;2023-02-01T14:52:36;8.00;99.90
24224;DHT22;12359;49.716;9.212;2023-02-01T14:55:15;8.00;18.20
24224;DHT22;12359;49.716;9.212;2023-02-01T14:57:45;8.00;1.00
24224;DHT22;12359;49.716;9.212;2023-02-01T15:00:24;8.00;18.80
24224;DHT22;12359;49.716;9.212;2023-02-01T15:02:51;7.90;99.90
24224;DHT22;12359;49.716;9.212;2023-02-01T15:07:52;7.90;55.90
24224;DHT22;12359;49.716;9.212;2023-02-01T15:10:20;7.90;99.90
24224;DHT22;12359;49.716;9.212;2023-02-01T15:12:46;7.90;4.70
24224;DHT22;12359;49.716;9.212;2023-02-01T15:15:23;7.90;99.90
24224;DHT22;12359;49.716;9.212;2023-02-01T15:17:57;7.90;95.80
24224;DHT22;12359;49.716;9.212;2023-02-01T15:20:26;7.90;90.40
24224;DHT22;12359;49.716;9.212;2023-02-01T15:23:03;7.90;99.90
24224;DHT22;12359;49.716;9.212;2023-02-01T15:25:35;7.90;99.90
24224;DHT22;12359;49.716;9.212;2023-02-01T15:28:02;7.90;1.00
24224;DHT22;12359;49.716;9.212;2023-02-01T15:30:30;7.90;99.90
24224;DHT22;12359;49.716;9.212;2023-02-01T15:33:18;7.90;1.00
24224;DHT22;12359;49.716;9.212;2023-02-01T15:41:04;7.90;1.00
24224;DHT22;12359;49.716;9.212;2023-02-01T15:43:36;7.90;1.00
24224;DHT22;12359;49.716;9.212;2023-02-01T15:46:08;7.90;99.90
24224;DHT22;12359;49.716;9.212;2023-02-01T15:48:44;7.90;99.90
24224;DHT22;12359;49.716;9.212;2023-02-01T15:51:25;7.80;1.00
24224;DHT22;12359;49.716;9.212;2023-02-01T15:53:58;7.80;1.00
24224;DHT22;12359;49.716;9.212;2023-02-01T15:56:33;7.80;99.90
24224;DHT22;12359;49.716;9.212;2023-02-01T15:59:01;7.80;1.00
24224;DHT22;12359;49.716;9.212;2023-02-01T16:01:27;7.80;99.90
24224;DHT22;12359;49.716;9.212;2023-02-01T16:04:18;7.80;99.90
24224;DHT22;12359;49.716;9.212;2023-02-01T16:06:55;7.70;99.90
24224;DHT22;12359;49.716;9.212;2023-02-01T16:09:34;7.70;99.90
24224;DHT22;12359;49.716;9.212;2023-02-01T16:12:02;7.70;1.00
24224;DHT22;12359;49.716;9.212;2023-02-01T16:14:28;7.70;99.90
24224;DHT22;12359;49.716;9.212;2023-02-01T16:16:56;7.70;1.00
24224;DHT22;12359;49.716;9.212;2023-02-01T16:19:22;7.70;1.00
24224;DHT22;12359;49.716;9.212;2023-02-01T16:21:56;7.70;1.00
24224;DHT22;12359;49.716;9.212;2023-02-01T16:24:22;7.70;1.00
24224;DHT22;12359;49.716;9.212;2023-02-01T16:26:50;7.70;1.00
24224;DHT22;12359;49.716;9.212;2023-02-01T16:29:15;7.70;1.00
24224;DHT22;12359;49.716;9.212;2023-02-01T16:31:41;7.70;1.00
24224;DHT22;12359;49.716;9.212;2023-02-01T16:34:14;7.70;1.00
24224;DHT22;12359;49.716;9.212;2023-02-01T16:36:42;7.70;99.90
24224;DHT22;12359;49.716;9.212;2023-02-01T16:39:11;7.70;99.90
24224;DHT22;12359;49.716;9.212;2023-02-01T16:41:36;7.70;99.90
24224;DHT22;12359;49.716;9.212;2023-02-01T16:44:03;7.80;99.90
24224;DHT22;12359;49.716;9.212;2023-02-01T16:46:32;7.80;99.90
24224;DHT22;12359;49.716;9.212;2023-02-01T16:48:59;7.80;64.80
24224;DHT22;12359;49.716;9.212;2023-02-01T16:51:28;7.80;1.00
24224;DHT22;12359;49.716;9.212;2023-02-01T16:53:57;7.70;1.00
24224;DHT22;12359;49.716;9.212;2023-02-01T16:56:29;7.70;1.00
24224;DHT22;12359;49.716;9.212;2023-02-01T16:58:55;7.70;99.90
24224;DHT22;12359;49.716;9.212;2023-02-01T17:01:21;7.70;99.90
24224;DHT22;12359;49.716;9.212;2023-02-01T17:03:47;7.80;99.90
24224;DHT22;12359;49.716;9.212;2023-02-01T17:06:20;7.80;99.90
24224;DHT22;12359;49.716;9.212;2023-02-01T17:08:52;7.80;99.90
24224;DHT22;12359;49.716;9.212;2023-02-01T17:11:19;7.80;1.00
24224;DHT22;12359;49.716;9.212;2023-02-01T17:13:45;7.80;3.10
24224;DHT22;12359;49.716;9.212;2023-02-01T17:16:27;7.80;99.90
24224;DHT22;12359;49.716;9.212;2023-02-01T17:19:06;7.80;99.90
24224;DHT22;12359;49.716;9.212;2023-02-01T17:21:41;7.80;99.90
24224;DHT22;12359;49.716;9.212;2023-02-01T17:24:12;7.80;1.00
24224;DHT22;12359;49.716;9.212;2023-02-01T17:26:38;7.80;99.90
24224;DHT22;12359;49.716;9.212;2023-02-01T17:29:04;7.80;99.90
24224;DHT22;12359;49.716;9.212;2023-02-01T17:31:29;7.80;1.00
24224;DHT22;12359;49.716;9.212;2023-02-01T17:33:56;7.80;1.00
24224;DHT22;12359;49.716;9.212;2023-02-01T17:36:22;7.80;1.00
24224;DHT22;12359;49.716;9.212;2023-02-01T17:38:47;7.80;1.00
24224;DHT22;12359;49.716;9.212;2023-02-01T17:41:13;7.80;99.90
24224;DHT22;12359;49.716;9.212;2023-02-01T17:43:40;7.80;99.90
24224;DHT22;12359;49.716;9.212;2023-02-01T17:48:36;7.80;17.20
24224;DHT22;12359;49.716;9.212;2023-02-01T17:51:03;7.80;8.70
24224;DHT22;12359;49.716;9.212;2023-02-01T17:53:30;7.80;1.00
24224;DHT22;12359;49.716;9.212;2023-02-01T17:55:55;7.70;99.90
24224;DHT22;12359;49.716;9.212;2023-02-01T17:58:26;7.70;8.40
24224;DHT22;12359;49.716;9.212;2023-02-01T18:00:54;7.60;99.90
24224;DHT22;12359;49.716;9.212;2023-02-01T18:03:28;7.60;1.00
24224;DHT22;12359;49.716;9.212;2023-02-01T18:05:56;7.60;99.90
24224;DHT22;12359;49.716;9.212;2023-02-01T18:08:27;7.60;99.90
24224;DHT22;12359;49.716;9.212;2023-02-01T18:10:55;7.60;99.90
24224;DHT22;12359;49.716;9.212;2023-02-01T18:13:24;7.60;99.90
24224;DHT22;12359;49.716;9.212;2023-02-01T18:15:50;7.60;99.90
24224;DHT22;12359;49.716;9.212;2023-02-01T18:18:15;7.60;1.00
24224;DHT22;12359;49.716;9.212;2023-02-01T18:20:43;7.70;99.90
24224;DHT22;12359;49.716;9.212;2023-02-01T18:23:18;7.70;99.90
24224;DHT22;12359;49.716;9.212;2023-02-01T18:25:44;7.70;99.90
24224;DHT22;12359;49.716;9.212;2023-02-01T18:28:15;7.80;99.90
24224;DHT22;12359;49.716;9.212;2023-02-01T18:30:43;7.80;99.90
24224;DHT22;12359;49.716;9.212;2023-02-01T18:33:14;7.70;99.90
24224;DHT22;12359;49.716;9.212;2023-02-01T18:35:40;7.70;99.90
24224;DHT22;12359;49.716;9.212;2023-02-01T18:38:06;7.70;99.90
24224;DHT22;12359;49.716;9.212;2023-02-01T18:40:49;7.70;1.00
24224;DHT22;12359;49.716;9.212;2023-02-01T18:43:16;7.70;99.90
24224;DHT22;12359;49.716;9.212;2023-02-01T18:45:43;7.70;99.90
24224;DHT22;12359;49.716;9.212;2023-02-01T18:48:13;7.70;99.90
24224;DHT22;12359;49.716;9.212;2023-02-01T18:50:42;7.70;99.90
24224;DHT22;12359;49.716;9.212;2023-02-01T18:53:17;7.70;1.00
24224;DHT22;12359;49.716;9.212;2023-02-01T18:55:48;7.70;99.90
24224;DHT22;12359;49.716;9.212;2023-02-01T18:58:15;7.70;99.90
24224;DHT22;12359;49.716;9.212;2023-02-01T19:00:43;7.70;99.90
24224;DHT22;12359;49.716;9.212;2023-02-01T19:03:11;7.70;99.90
24224;DHT22;12359;49.716;9.212;2023-02-01T19:05:37;7.70;1.00
24224;DHT22;12359;49.716;9.212;2023-02-01T19:08:02;7.70;99.90
24224;DHT22;12359;49.716;9.212;2023-02-01T19:10:28;7.70;29.50
24224;DHT22;12359;49.716;9.212;2023-02-01T19:12:54;7.70;99.90
24224;DHT22;12359;49.716;9.212;2023-02-01T19:15:20;7.80;99.90
24224;DHT22;12359;49.716;9.212;2023-02-01T19:17:50;7.70;99.90
24224;DHT22;12359;49.716;9.212;2023-02-01T19:20:18;7.70;99.90
24224;DHT22;12359;49.716;9.212;2023-02-01T19:22:45;7.70;99.90
24224;DHT22;12359;49.716;9.212;2023-02-01T19:25:19;7.70;85.60
24224;DHT22;12359;49.716;9.212;2023-02-01T19:27:47;7.70;99.90
24224;DHT22;12359;49.716;9.212;2023-02-01T19:30:13;7.80;1.00
24224;DHT22;12359;49.716;9.212;2023-02-01T19:32:39;7.80;37.70
24224;DHT22;12359;49.716;9.212;2023-02-01T19:35:06;7.80;1.00
24224;DHT22;12359;49.716;9.212;2023-02-01T19:37:32;7.80;99.90
24224;DHT22;12359;49.716;9.212;2023-02-01T19:39:58;7.80;1.00
24224;DHT22;12359;49.716;9.212;2023-02-01T19:42:25;7.80;5.50
24224;DHT22;12359;49.716;9.212;2023-02-01T19:44:51;7.80;1.00
24224;DHT22;12359;49.716;9.212;2023-02-01T19:47:16;7.90;1.00
24224;DHT22;12359;49.716;9.212;2023-02-01T19:49:42;7.80;1.00
24224;DHT22;12359;49.716;9.212;2023-02-01T19:52:09;7.80;99.90